sensor_id;sensor_type;location;lat;lon;timestamp;pressure;altitude;pressure_sealevel;temperature;humidity
24746;BME280;12845;52.042;6.838;2023-07-09T00:01:56;-18696.53;;;24.96;82.64
24746;BME280;12845;52.042;6.838;2023-07-09T00:04:21;-18694.78;;;24.89;84.19
24746;BME280;12845;52.042;6.838;2023-07-09T00:06:47;-18691.53;;;24.77;86.25
24746;BME280;12845;52.042;6.838;2023-07-09T00:09:21;-18691.13;;;24.75;87.96
24746;BME280;12845;52.042;6.838;2023-07-09T00:11:47;-18691.00;;;24.75;88.48
24746;BME280;12845;52.042;6.838;2023-07-09T00:14:14;-18688.28;;;24.65;88.94
24746;BME280;12845;52.042;6.838;2023-07-09T00:16:41;-18687.47;;;24.62;89.36
24746;BME280;12845;52.042;6.838;2023-07-09T00:19:11;-18686.94;;;24.60;90.75
24746;BME280;12845;52.042;6.838;2023-07-09T00:21:39;-18686.38;;;24.58;90.88
24746;BME280;12845;52.042;6.838;2023-07-09T00:24:06;-18684.34;;;24.50;90.38
24746;BME280;12845;52.042;6.838;2023-07-09T00:26:32;-18683.69;;;24.47;91.42
24746;BME280;12845;52.042;6.838;2023-07-09T00:28:58;-18684.34;;;24.50;90.78
24746;BME280;12845;52.042;6.838;2023-07-09T00:31:24;-18685.31;;;24.53;91.60
24746;BME280;12845;52.042;6.838;2023-07-09T00:33:49;-18684.22;;;24.49;91.74
24746;BME280;12845;52.042;6.838;2023-07-09T00:36:21;-18682.88;;;24.44;92.29
24746;BME280;12845;52.042;6.838;2023-07-09T00:38:49;-18683.53;;;24.47;91.67
24746;BME280;12845;52.042;6.838;2023-07-09T00:41:22;-18682.03;;;24.41;92.24
24746;BME280;12845;52.042;6.838;2023-07-09T00:43:49;-18676.63;;;24.21;95.54
24746;BME280;12845;52.042;6.838;2023-07-09T00:48:59;-18679.59;;;24.32;93.61
24746;BME280;12845;52.042;6.838;2023-07-09T00:51:26;-18675.94;;;24.18;94.99
24746;BME280;12845;52.042;6.838;2023-07-09T00:53:55;-18676.34;;;24.20;95.88
24746;BME280;12845;52.042;6.838;2023-07-09T00:56:38;-18675.00;;;24.15;95.93
24746;BME280;12845;52.042;6.838;2023-07-09T00:59:08;-18676.09;;;24.19;95.28
24746;BME280;12845;52.042;6.838;2023-07-09T01:01:36;-18675.94;;;24.18;94.07
24746;BME280;12845;52.042;6.838;2023-07-09T01:04:05;-18677.72;;;24.25;94.48
24746;BME280;12845;52.042;6.838;2023-07-09T01:06:35;-18675.53;;;24.17;94.19
24746;BME280;12845;52.042;6.838;2023-07-09T01:09:02;-18676.75;;;24.21;95.02
24746;BME280;12845;52.042;6.838;2023-07-09T01:11:28;-18676.22;;;24.19;96.57
24746;BME280;12845;52.042;6.838;2023-07-09T01:13:57;-18675.53;;;24.17;97.46
24746;BME280;12845;52.042;6.838;2023-07-09T01:16:28;-18675.28;;;24.16;96.50
24746;BME280;12845;52.042;6.838;2023-07-09T01:18:55;-18674.88;;;24.14;95.25
24746;BME280;12845;52.042;6.838;2023-07-09T01:21:21;-18673.78;;;24.10;96.27
24746;BME280;12845;52.042;6.838;2023-07-09T01:23:48;-18678.78;;;24.29;93.96
24746;BME280;12845;52.042;6.838;2023-07-09T01:26:16;-18677.72;;;24.25;95.39
24746;BME280;12845;52.042;6.838;2023-07-09T01:28:42;-18678.13;;;24.26;94.22
24746;BME280;12845;52.042;6.838;2023-07-09T01:31:12;-18677.84;;;24.25;94.46
24746;BME280;12845;52.042;6.838;2023-07-09T01:33:38;-18678.38;;;24.27;95.02
24746;BME280;12845;52.042;6.838;2023-07-09T01:36:08;-18675.53;;;24.17;96.23
24746;BME280;12845;52.042;6.838;2023-07-09T01:38:34;-18673.50;;;24.09;97.19
24746;BME280;12845;52.042;6.838;2023-07-09T01:41:01;-18674.31;;;24.12;97.85
24746;BME280;12845;52.042;6.838;2023-07-09T01:43:27;-18670.41;;;23.97;99.32
24746;BME280;12845;52.042;6.838;2023-07-09T01:45:53;-18670.25;;;23.97;99.62
24746;BME280;12845;52.042;6.838;2023-07-09T01:48:23;-18668.63;;;23.91;99.76
24746;BME280;12845;52.042;6.838;2023-07-09T01:50:50;-18669.59;;;23.94;98.83
24746;BME280;12845;52.042;6.838;2023-07-09T01:53:17;-18671.47;;;24.01;98.25
24746;BME280;12845;52.042;6.838;2023-07-09T01:55:44;-18668.78;;;23.91;98.35
24746;BME280;12845;52.042;6.838;2023-07-09T01:58:10;-18668.91;;;23.92;100.00
24746;BME280;12845;52.042;6.838;2023-07-09T02:00:37;-18667.28;;;23.85;99.93
24746;BME280;12845;52.042;6.838;2023-07-09T02:03:03;-18666.59;;;23.83;100.00
24746;BME280;12845;52.042;6.838;2023-07-09T02:05:32;-18666.31;;;23.82;100.00
24746;BME280;12845;52.042;6.838;2023-07-09T02:07:59;-18668.50;;;23.90;99.53
24746;BME280;12845;52.042;6.838;2023-07-09T02:10:25;-18666.88;;;23.84;100.00
24746;BME280;12845;52.042;6.838;2023-07-09T02:12:51;-18666.47;;;23.82;100.00
24746;BME280;12845;52.042;6.838;2023-07-09T02:15:16;-18662.00;;;23.65;100.00
24746;BME280;12845;52.042;6.838;2023-07-09T02:17:42;-18660.75;;;23.61;100.00
24746;BME280;12845;52.042;6.838;2023-07-09T02:20:09;-18661.31;;;23.63;100.00
24746;BME280;12845;52.042;6.838;2023-07-09T02:22:35;-18657.66;;;23.49;100.00
24746;BME280;12845;52.042;6.838;2023-07-09T02:25:02;-18656.28;;;23.44;100.00
24746;BME280;12845;52.042;6.838;2023-07-09T02:27:28;-18656.84;;;23.46;100.00
24746;BME280;12845;52.042;6.838;2023-07-09T02:29:53;-18656.56;;;23.45;100.00
24746;BME280;12845;52.042;6.838;2023-07-09T02:32:21;-18656.28;;;23.44;100.00
24746;BME280;12845;52.042;6.838;2023-07-09T02:34:47;-18654.53;;;23.37;100.00
24746;BME280;12845;52.042;6.838;2023-07-09T02:37:15;-18655.22;;;23.40;100.00
24746;BME280;12845;52.042;6.838;2023-07-09T02:39:42;-18652.50;;;23.30;100.00
24746;BME280;12845;52.042;6.838;2023-07-09T02:42:09;-18648.97;;;23.16;100.00
24746;BME280;12845;52.042;6.838;2023-07-09T02:44:35;-18649.09;;;23.17;100.00
24746;BME280;12845;52.042;6.838;2023-07-09T02:47:00;-18649.78;;;23.19;100.00
24746;BME280;12845;52.042;6.838;2023-07-09T02:49:26;-18648.28;;;23.14;100.00
24746;BME280;12845;52.042;6.838;2023-07-09T02:51:51;-18647.59;;;23.11;100.00
24746;BME280;12845;52.042;6.838;2023-07-09T02:54:16;-18647.75;;;23.12;100.00
24746;BME280;12845;52.042;6.838;2023-07-09T02:56:42;-18647.19;;;23.10;100.00
24746;BME280;12845;52.042;6.838;2023-07-09T02:59:07;-18646.38;;;23.07;100.00
24746;BME280;12845;52.042;6.838;2023-07-09T03:01:33;-18645.56;;;23.04;100.00
24746;BME280;12845;52.042;6.838;2023-07-09T03:04:00;-18644.63;;;23.00;100.00
24746;BME280;12845;52.042;6.838;2023-07-09T03:06:27;-18642.19;;;22.91;100.00
24746;BME280;12845;52.042;6.838;2023-07-09T03:08:52;-18641.22;;;22.87;100.00
24746;BME280;12845;52.042;6.838;2023-07-09T03:11:19;-18640.81;;;22.86;100.00
24746;BME280;12845;52.042;6.838;2023-07-09T03:13:46;-18639.47;;;22.81;100.00
24746;BME280;12845;52.042;6.838;2023-07-09T03:16:12;-18639.72;;;22.82;100.00
24746;BME280;12845;52.042;6.838;2023-07-09T03:18:38;-18642.19;;;22.91;100.00
24746;BME280;12845;52.042;6.838;2023-07-09T03:21:04;-18641.91;;;22.90;100.00
24746;BME280;12845;52.042;6.838;2023-07-09T03:23:29;-18637.97;;;22.75;100.00
24746;BME280;12845;52.042;6.838;2023-07-09T03:25:55;-18638.50;;;22.77;100.00
24746;BME280;12845;52.042;6.838;2023-07-09T03:28:21;-18638.78;;;22.78;100.00
24746;BME280;12845;52.042;6.838;2023-07-09T03:30:48;-18636.47;;;22.69;100.00
24746;BME280;12845;52.042;6.838;2023-07-09T03:33:15;-18635.13;;;22.64;100.00
24746;BME280;12845;52.042;6.838;2023-07-09T03:35:41;-18635.53;;;22.66;100.00
24746;BME280;12845;52.042;6.838;2023-07-09T03:38:08;-18635.94;;;22.67;100.00
24746;BME280;12845;52.042;6.838;2023-07-09T03:40:35;-18636.47;;;22.69;100.00
24746;BME280;12845;52.042;6.838;2023-07-09T03:43:02;-18637.44;;;22.73;100.00
24746;BME280;12845;52.042;6.838;2023-07-09T03:45:27;-18637.28;;;22.72;100.00
24746;BME280;12845;52.042;6.838;2023-07-09T03:47:52;-18637.28;;;22.72;100.00
24746;BME280;12845;52.042;6.838;2023-07-09T03:50:18;-18638.66;;;22.78;100.00
24746;BME280;12845;52.042;6.838;2023-07-09T03:52:44;-18637.56;;;22.73;100.00
24746;BME280;12845;52.042;6.838;2023-07-09T03:55:09;-18636.59;;;22.70;100.00
24746;BME280;12845;52.042;6.838;2023-07-09T03:57:35;-18635.94;;;22.67;100.00
24746;BME280;12845;52.042;6.838;2023-07-09T04:00:01;-18636.59;;;22.70;100.00
24746;BME280;12845;52.042;6.838;2023-07-09T04:02:27;-18636.47;;;22.69;100.00
24746;BME280;12845;52.042;6.838;2023-07-09T04:04:53;-18635.13;;;22.64;100.00
24746;BME280;12845;52.042;6.838;2023-07-09T04:07:18;-18635.13;;;22.64;100.00
24746;BME280;12845;52.042;6.838;2023-07-09T04:09:44;-18635.94;;;22.67;100.00
24746;BME280;12845;52.042;6.838;2023-07-09T04:12:10;-18638.09;;;22.75;100.00
24746;BME280;12845;52.042;6.838;2023-07-09T04:14:35;-18634.84;;;22.63;100.00
24746;BME280;12845;52.042;6.838;2023-07-09T04:17:01;-18633.91;;;22.60;100.00
24746;BME280;12845;52.042;6.838;2023-07-09T04:19:27;-18637.84;;;22.74;100.00
24746;BME280;12845;52.042;6.838;2023-07-09T04:21:52;-18636.75;;;22.70;100.00
24746;BME280;12845;52.042;6.838;2023-07-09T04:24:18;-18639.31;;;22.80;100.00
24746;BME280;12845;52.042;6.838;2023-07-09T04:26:44;-18640.00;;;22.83;100.00
24746;BME280;12845;52.042;6.838;2023-07-09T04:29:10;-18640.81;;;22.86;100.00
24746;BME280;12845;52.042;6.838;2023-07-09T04:31:35;-18642.44;;;22.92;100.00
24746;BME280;12845;52.042;6.838;2023-07-09T04:34:01;-18642.19;;;22.91;100.00
24746;BME280;12845;52.042;6.838;2023-07-09T04:36:27;-18642.44;;;22.92;100.00
24746;BME280;12845;52.042;6.838;2023-07-09T04:38:52;-18646.94;;;23.09;100.00
24746;BME280;12845;52.042;6.838;2023-07-09T04:41:18;-18647.59;;;23.11;100.00
24746;BME280;12845;52.042;6.838;2023-07-09T04:43:43;-18646.78;;;23.08;100.00
24746;BME280;12845;52.042;6.838;2023-07-09T04:46:09;-18650.72;;;23.23;100.00
24746;BME280;12845;52.042;6.838;2023-07-09T04:48:34;-18652.22;;;23.29;100.00
24746;BME280;12845;52.042;6.838;2023-07-09T04:50:59;-18654.66;;;23.38;100.00
24746;BME280;12845;52.042;6.838;2023-07-09T04:53:25;-18657.09;;;23.47;100.00
24746;BME280;12845;52.042;6.838;2023-07-09T04:55:51;-18658.59;;;23.53;100.00
24746;BME280;12845;52.042;6.838;2023-07-09T04:58:17;-18661.31;;;23.63;100.00
24746;BME280;12845;52.042;6.838;2023-07-09T05:00:43;-18664.16;;;23.74;100.00
24746;BME280;12845;52.042;6.838;2023-07-09T05:03:09;-18667.53;;;23.86;100.00
24746;BME280;12845;52.042;6.838;2023-07-09T05:05:34;-18668.22;;;23.89;100.00
24746;BME280;12845;52.042;6.838;2023-07-09T05:07:59;-18672.03;;;24.03;100.00
24746;BME280;12845;52.042;6.838;2023-07-09T05:10:25;-18675.13;;;24.15;100.00
24746;BME280;12845;52.042;6.838;2023-07-09T05:12:53;-18677.56;;;24.24;100.00
24746;BME280;12845;52.042;6.838;2023-07-09T05:15:19;-18681.22;;;24.38;100.00
24746;BME280;12845;52.042;6.838;2023-07-09T05:17:45;-18685.31;;;24.53;100.00
24746;BME280;12845;52.042;6.838;2023-07-09T05:20:11;-18684.50;;;24.50;100.00
24746;BME280;12845;52.042;6.838;2023-07-09T05:22:37;-18686.66;;;24.59;100.00
24746;BME280;12845;52.042;6.838;2023-07-09T05:25:02;-18687.75;;;24.63;100.00
24746;BME280;12845;52.042;6.838;2023-07-09T05:27:28;-18683.41;;;24.46;100.00
24746;BME280;12845;52.042;6.838;2023-07-09T05:29:54;-18685.44;;;24.54;100.00
24746;BME280;12845;52.042;6.838;2023-07-09T05:32:20;-18690.72;;;24.74;100.00
24746;BME280;12845;52.042;6.838;2023-07-09T05:34:45;-18697.22;;;24.98;100.00
24746;BME280;12845;52.042;6.838;2023-07-09T05:37:11;-18699.94;;;25.09;99.26
24746;BME280;12845;52.042;6.838;2023-07-09T05:39:36;-18708.59;;;25.41;97.71
24746;BME280;12845;52.042;6.838;2023-07-09T05:42:02;-18709.94;;;25.47;98.50
24746;BME280;12845;52.042;6.838;2023-07-09T05:44:27;-18714.94;;;25.65;94.69
24746;BME280;12845;52.042;6.838;2023-07-09T05:46:53;-18716.56;;;25.72;95.25
24746;BME280;12845;52.042;6.838;2023-07-09T05:49:18;-18719.28;;;25.82;94.56
24746;BME280;12845;52.042;6.838;2023-07-09T05:51:43;-18723.47;;;25.98;92.67
24746;BME280;12845;52.042;6.838;2023-07-09T05:54:09;-18723.47;;;25.98;91.89
24746;BME280;12845;52.042;6.838;2023-07-09T05:56:34;-18726.19;;;26.08;91.31
24746;BME280;12845;52.042;6.838;2023-07-09T05:59:00;-18728.34;;;26.16;90.92
24746;BME280;12845;52.042;6.838;2023-07-09T06:01:25;-18734.97;;;26.41;89.34
24746;BME280;12845;52.042;6.838;2023-07-09T06:03:52;-18738.09;;;26.53;86.83
24746;BME280;12845;52.042;6.838;2023-07-09T06:06:18;-18739.44;;;26.58;84.85
24746;BME280;12845;52.042;6.838;2023-07-09T06:08:43;-18742.41;;;26.69;86.16
24746;BME280;12845;52.042;6.838;2023-07-09T06:11:09;-18745.91;;;26.83;83.41
24746;BME280;12845;52.042;6.838;2023-07-09T06:13:35;-18752.41;;;27.07;80.93
24746;BME280;12845;52.042;6.838;2023-07-09T06:16:00;-18754.84;;;27.16;78.31
24746;BME280;12845;52.042;6.838;2023-07-09T06:18:26;-18756.72;;;27.23;76.62
24746;BME280;12845;52.042;6.838;2023-07-09T06:20:57;-18760.78;;;27.39;77.51
24746;BME280;12845;52.042;6.838;2023-07-09T06:23:23;-18760.78;;;27.39;79.10
24746;BME280;12845;52.042;6.838;2023-07-09T06:25:48;-18764.81;;;27.54;75.14
24746;BME280;12845;52.042;6.838;2023-07-09T06:28:16;-18765.63;;;27.57;75.70
24746;BME280;12845;52.042;6.838;2023-07-09T06:30:42;-18769.00;;;27.70;81.19
24746;BME280;12845;52.042;6.838;2023-07-09T06:33:07;-18768.19;;;27.67;78.98
24746;BME280;12845;52.042;6.838;2023-07-09T06:35:33;-18772.66;;;27.84;78.60
24746;BME280;12845;52.042;6.838;2023-07-09T06:37:58;-18774.94;;;27.93;77.93
24746;BME280;12845;52.042;6.838;2023-07-09T06:40:24;-18780.09;;;28.12;73.92
24746;BME280;12845;52.042;6.838;2023-07-09T06:42:50;-18777.91;;;28.04;74.50
24746;BME280;12845;52.042;6.838;2023-07-09T06:45:16;-18775.75;;;27.96;75.07
24746;BME280;12845;52.042;6.838;2023-07-09T06:47:42;-18775.34;;;27.94;74.94
24746;BME280;12845;52.042;6.838;2023-07-09T06:50:07;-18777.78;;;28.03;74.29
24746;BME280;12845;52.042;6.838;2023-07-09T06:52:33;-18781.56;;;28.18;76.42
24746;BME280;12845;52.042;6.838;2023-07-09T06:54:58;-18784.00;;;28.27;75.38
24746;BME280;12845;52.042;6.838;2023-07-09T06:57:24;-18787.50;;;28.40;75.00
24746;BME280;12845;52.042;6.838;2023-07-09T06:59:49;-18787.50;;;28.40;74.38
24746;BME280;12845;52.042;6.838;2023-07-09T07:02:14;-18789.13;;;28.46;73.19
24746;BME280;12845;52.042;6.838;2023-07-09T07:04:40;-18793.56;;;28.63;75.10
24746;BME280;12845;52.042;6.838;2023-07-09T07:07:06;-18795.72;;;28.71;72.60
24746;BME280;12845;52.042;6.838;2023-07-09T07:09:32;-18798.56;;;28.82;72.69
24746;BME280;12845;52.042;6.838;2023-07-09T07:11:57;-18805.44;;;29.08;70.28
24746;BME280;12845;52.042;6.838;2023-07-09T07:14:23;-18805.16;;;29.07;71.19
24746;BME280;12845;52.042;6.838;2023-07-09T07:16:48;-18805.56;;;29.09;71.36
24746;BME280;12845;52.042;6.838;2023-07-09T07:19:14;-18808.13;;;29.18;71.08
24746;BME280;12845;52.042;6.838;2023-07-09T07:21:40;-18809.34;;;29.23;70.76
24746;BME280;12845;52.042;6.838;2023-07-09T07:24:05;-18809.19;;;29.22;71.27
24746;BME280;12845;52.042;6.838;2023-07-09T07:26:31;-18811.75;;;29.32;71.84
24746;BME280;12845;52.042;6.838;2023-07-09T07:32:17;-18821.31;;;29.68;70.44
24746;BME280;12845;52.042;6.838;2023-07-09T07:34:43;-18825.78;;;29.85;68.02
24746;BME280;12845;52.042;6.838;2023-07-09T07:37:08;-18827.13;;;29.90;67.47
24746;BME280;12845;52.042;6.838;2023-07-09T07:39:33;-18830.63;;;30.04;69.12
24746;BME280;12845;52.042;6.838;2023-07-09T07:41:59;-18832.91;;;30.12;67.53
24746;BME280;12845;52.042;6.838;2023-07-09T07:44:24;-18834.09;;;30.17;66.20
24746;BME280;12845;52.042;6.838;2023-07-09T07:46:50;-18837.88;;;30.31;67.42
24746;BME280;12845;52.042;6.838;2023-07-09T07:49:15;-18842.31;;;30.48;66.49
24746;BME280;12845;52.042;6.838;2023-07-09T07:51:40;-18840.84;;;30.43;64.00
24746;BME280;12845;52.042;6.838;2023-07-09T07:54:06;-18844.06;;;30.55;63.30
24746;BME280;12845;52.042;6.838;2023-07-09T07:56:36;-18845.69;;;30.61;64.94
24746;BME280;12845;52.042;6.838;2023-07-09T07:59:02;-18848.63;;;30.72;62.26
24746;BME280;12845;52.042;6.838;2023-07-09T08:01:27;-18850.41;;;30.79;65.90
24746;BME280;12845;52.042;6.838;2023-07-09T08:03:53;-18853.75;;;30.92;65.71
24746;BME280;12845;52.042;6.838;2023-07-09T08:06:19;-18857.25;;;31.05;64.95
24746;BME280;12845;52.042;6.838;2023-07-09T08:08:44;-18856.31;;;31.01;64.20
24746;BME280;12845;52.042;6.838;2023-07-09T08:11:09;-18860.59;;;31.18;60.65
24746;BME280;12845;52.042;6.838;2023-07-09T08:13:35;-18863.97;;;31.31;59.79
24746;BME280;12845;52.042;6.838;2023-07-09T08:16:01;-18863.16;;;31.28;59.21
24746;BME280;12845;52.042;6.838;2023-07-09T08:18:27;-18863.81;;;31.30;59.48
24746;BME280;12845;52.042;6.838;2023-07-09T08:20:53;-18864.09;;;31.31;58.83
24746;BME280;12845;52.042;6.838;2023-07-09T08:23:18;-18869.06;;;31.50;58.82
24746;BME280;12845;52.042;6.838;2023-07-09T08:25:44;-18869.75;;;31.53;59.47
24746;BME280;12845;52.042;6.838;2023-07-09T08:28:17;-18872.84;;;31.64;61.82
24746;BME280;12845;52.042;6.838;2023-07-09T08:30:42;-18873.50;;;31.67;56.83
24746;BME280;12845;52.042;6.838;2023-07-09T08:33:07;-18883.03;;;32.03;55.80
24746;BME280;12845;52.042;6.838;2023-07-09T08:35:33;-18886.25;;;32.16;56.94
24746;BME280;12845;52.042;6.838;2023-07-09T08:37:58;-18887.06;;;32.19;51.83
24746;BME280;12845;52.042;6.838;2023-07-09T08:40:23;-18887.59;;;32.21;54.65
24746;BME280;12845;52.042;6.838;2023-07-09T08:42:54;-18888.28;;;32.23;55.51
24746;BME280;12845;52.042;6.838;2023-07-09T08:48:30;-18895.13;;;32.49;53.65
24746;BME280;12845;52.042;6.838;2023-07-09T08:51:02;-18900.63;;;32.70;53.70
24746;BME280;12845;52.042;6.838;2023-07-09T08:53:50;-18901.81;;;32.75;53.78
24746;BME280;12845;52.042;6.838;2023-07-09T08:56:18;-18904.50;;;32.85;52.78
24746;BME280;12845;52.042;6.838;2023-07-09T08:58:45;-18908.25;;;32.99;51.96
24746;BME280;12845;52.042;6.838;2023-07-09T09:01:19;-18913.63;;;33.20;53.33
24746;BME280;12845;52.042;6.838;2023-07-09T09:03:58;-18915.22;;;33.26;51.49
24746;BME280;12845;52.042;6.838;2023-07-09T09:06:27;-18916.31;;;33.30;54.08
24746;BME280;12845;52.042;6.838;2023-07-09T09:09:28;-18920.47;;;33.46;52.37
24746;BME280;12845;52.042;6.838;2023-07-09T09:12:20;-18921.41;;;33.50;49.00
24746;BME280;12845;52.042;6.838;2023-07-09T09:14:51;-18920.88;;;33.47;49.10
24746;BME280;12845;52.042;6.838;2023-07-09T09:17:19;-18918.44;;;33.38;48.33
24746;BME280;12845;52.042;6.838;2023-07-09T09:20:03;-18919.53;;;33.42;48.42
24746;BME280;12845;52.042;6.838;2023-07-09T09:22:40;-18927.03;;;33.71;50.49
24746;BME280;12845;52.042;6.838;2023-07-09T09:25:27;-18930.78;;;33.85;47.92
24746;BME280;12845;52.042;6.838;2023-07-09T09:27:54;-18935.31;;;34.03;49.71
24746;BME280;12845;52.042;6.838;2023-07-09T09:30:21;-18936.00;;;34.05;49.88
24746;BME280;12845;52.042;6.838;2023-07-09T09:32:56;-18938.00;;;34.13;47.81
24746;BME280;12845;52.042;6.838;2023-07-09T09:35:33;-18939.22;;;34.18;47.58
24746;BME280;12845;52.042;6.838;2023-07-09T09:38:00;-18941.75;;;34.27;45.55
24746;BME280;12845;52.042;6.838;2023-07-09T09:40:28;-18946.97;;;34.47;45.42
24746;BME280;12845;52.042;6.838;2023-07-09T09:42:56;-18940.41;;;34.22;45.65
24746;BME280;12845;52.042;6.838;2023-07-09T09:45:49;-18949.13;;;34.55;49.51
24746;BME280;12845;52.042;6.838;2023-07-09T09:50:45;-18949.53;;;34.57;43.79
24746;BME280;12845;52.042;6.838;2023-07-09T09:53:24;-18954.34;;;34.75;45.17
24746;BME280;12845;52.042;6.838;2023-07-09T09:55:50;-18957.69;;;34.88;44.40
24746;BME280;12845;52.042;6.838;2023-07-09T09:58:17;-18964.25;;;35.13;44.09
24746;BME280;12845;52.042;6.838;2023-07-09T10:00:52;-18969.59;;;35.34;43.37
24746;BME280;12845;52.042;6.838;2023-07-09T10:03:18;-18976.78;;;35.61;43.92
24746;BME280;12845;52.042;6.838;2023-07-09T10:05:57;-18973.19;;;35.47;42.79
24746;BME280;12845;52.042;6.838;2023-07-09T10:08:53;-18972.13;;;35.43;41.47
24746;BME280;12845;52.042;6.838;2023-07-09T10:11:44;-18972.25;;;35.44;41.71
24746;BME280;12845;52.042;6.838;2023-07-09T10:17:28;-18973.84;;;35.50;41.57
24746;BME280;12845;52.042;6.838;2023-07-09T10:22:57;-18990.16;;;36.12;41.57
24746;BME280;12845;52.042;6.838;2023-07-09T10:25:53;-18993.88;;;36.27;41.67
24746;BME280;12845;52.042;6.838;2023-07-09T10:31:31;-18986.41;;;35.98;37.74
24746;BME280;12845;52.042;6.838;2023-07-09T10:34:10;-18985.88;;;35.96;39.21
24746;BME280;12845;52.042;6.838;2023-07-09T10:39:27;-18999.22;;;36.47;40.15
24746;BME280;12845;52.042;6.838;2023-07-09T10:41:56;-18997.22;;;36.40;38.64
24746;BME280;12845;52.042;6.838;2023-07-09T10:44:41;-18998.03;;;36.43;37.58
24746;BME280;12845;52.042;6.838;2023-07-09T10:47:24;-18992.56;;;36.22;37.69
24746;BME280;12845;52.042;6.838;2023-07-09T10:49:51;-18992.41;;;36.21;36.66
24746;BME280;12845;52.042;6.838;2023-07-09T10:53:00;-18991.09;;;36.16;38.88
24746;BME280;12845;52.042;6.838;2023-07-09T10:58:00;-19003.78;;;36.65;38.09
24746;BME280;12845;52.042;6.838;2023-07-09T11:00:37;-19006.56;;;36.75;37.61
24746;BME280;12845;52.042;6.838;2023-07-09T11:03:13;-19008.69;;;36.84;37.34
24746;BME280;12845;52.042;6.838;2023-07-09T11:05:41;-19012.56;;;36.98;37.80
24746;BME280;12845;52.042;6.838;2023-07-09T11:08:17;-19012.84;;;36.99;36.90
24746;BME280;12845;52.042;6.838;2023-07-09T11:10:53;-19013.09;;;37.00;36.42
24746;BME280;12845;52.042;6.838;2023-07-09T11:13:24;-19012.31;;;36.97;35.29
24746;BME280;12845;52.042;6.838;2023-07-09T11:15:54;-19013.38;;;37.01;34.90
24746;BME280;12845;52.042;6.838;2023-07-09T11:18:33;-19014.44;;;37.06;35.71
24746;BME280;12845;52.042;6.838;2023-07-09T11:21:21;-19015.25;;;37.09;35.15
24746;BME280;12845;52.042;6.838;2023-07-09T11:23:57;-19010.69;;;36.91;35.23
24746;BME280;12845;52.042;6.838;2023-07-09T11:29:06;-19013.25;;;37.01;35.06
24746;BME280;12845;52.042;6.838;2023-07-09T11:31:39;-19021.91;;;37.34;35.40
24746;BME280;12845;52.042;6.838;2023-07-09T11:36:57;-19025.09;;;37.46;34.90
24746;BME280;12845;52.042;6.838;2023-07-09T11:39:30;-19022.31;;;37.36;34.88
24746;BME280;12845;52.042;6.838;2023-07-09T11:41:58;-19021.38;;;37.32;35.32
24746;BME280;12845;52.042;6.838;2023-07-09T11:44:28;-19026.44;;;37.52;35.17
24746;BME280;12845;52.042;6.838;2023-07-09T11:49:31;-19029.78;;;37.64;34.54
24746;BME280;12845;52.042;6.838;2023-07-09T11:52:04;-19031.22;;;37.70;34.43
24746;BME280;12845;52.042;6.838;2023-07-09T11:54:34;-19031.22;;;37.70;33.59
24746;BME280;12845;52.042;6.838;2023-07-09T11:57:00;-19033.63;;;37.79;33.90
24746;BME280;12845;52.042;6.838;2023-07-09T11:59:28;-19030.97;;;37.69;33.12
24746;BME280;12845;52.042;6.838;2023-07-09T12:01:53;-19030.16;;;37.66;34.35
24746;BME280;12845;52.042;6.838;2023-07-09T12:04:31;-19035.22;;;37.85;34.04
24746;BME280;12845;52.042;6.838;2023-07-09T12:06:59;-19042.03;;;38.11;34.84
24746;BME280;12845;52.042;6.838;2023-07-09T12:09:32;-19043.63;;;38.18;33.87
24746;BME280;12845;52.042;6.838;2023-07-09T12:11:57;-19047.22;;;38.31;33.50
24746;BME280;12845;52.042;6.838;2023-07-09T12:14:23;-19051.75;;;38.49;32.73
24746;BME280;12845;52.042;6.838;2023-07-09T12:16:51;-19050.94;;;38.46;31.83
24746;BME280;12845;52.042;6.838;2023-07-09T12:19:24;-19045.75;;;38.26;32.45
24746;BME280;12845;52.042;6.838;2023-07-09T12:21:53;-19044.81;;;38.22;31.60
24746;BME280;12845;52.042;6.838;2023-07-09T12:24:24;-19044.16;;;38.20;32.55
24746;BME280;12845;52.042;6.838;2023-07-09T12:26:56;-19045.75;;;38.26;32.19
24746;BME280;12845;52.042;6.838;2023-07-09T12:29:34;-19054.53;;;38.59;31.58
24746;BME280;12845;52.042;6.838;2023-07-09T12:32:06;-19056.94;;;38.69;31.89
24746;BME280;12845;52.042;6.838;2023-07-09T12:34:35;-19056.00;;;38.65;30.85
24746;BME280;12845;52.042;6.838;2023-07-09T12:37:00;-19053.59;;;38.56;31.23
24746;BME280;12845;52.042;6.838;2023-07-09T12:39:28;-19053.06;;;38.54;31.88
24746;BME280;12845;52.042;6.838;2023-07-09T12:42:00;-19054.94;;;38.61;31.60
24746;BME280;12845;52.042;6.838;2023-07-09T12:44:30;-19054.66;;;38.60;31.48
24746;BME280;12845;52.042;6.838;2023-07-09T12:46:57;-19056.13;;;38.66;32.34
24746;BME280;12845;52.042;6.838;2023-07-09T12:49:27;-19058.25;;;38.74;32.23
24746;BME280;12845;52.042;6.838;2023-07-09T12:51:54;-19056.00;;;38.65;32.58
24746;BME280;12845;52.042;6.838;2023-07-09T12:54:20;-19052.66;;;38.52;32.43
24746;BME280;12845;52.042;6.838;2023-07-09T12:56:47;-19050.41;;;38.44;32.80
24746;BME280;12845;52.042;6.838;2023-07-09T12:59:24;-19050.16;;;38.43;32.91
24746;BME280;12845;52.042;6.838;2023-07-09T13:02:02;-19049.59;;;38.41;33.25
24746;BME280;12845;52.042;6.838;2023-07-09T13:04:34;-19050.94;;;38.46;33.19
24746;BME280;12845;52.042;6.838;2023-07-09T13:07:01;-19047.75;;;38.33;32.96
24746;BME280;12845;52.042;6.838;2023-07-09T13:09:27;-19045.09;;;38.23;33.16
24746;BME280;12845;52.042;6.838;2023-07-09T13:11:54;-19046.41;;;38.28;33.95
24746;BME280;12845;52.042;6.838;2023-07-09T13:14:29;-19046.41;;;38.28;33.29
24746;BME280;12845;52.042;6.838;2023-07-09T13:17:04;-19049.88;;;38.42;32.53
24746;BME280;12845;52.042;6.838;2023-07-09T13:19:30;-19048.69;;;38.37;31.56
24746;BME280;12845;52.042;6.838;2023-07-09T13:21:55;-19045.09;;;38.23;32.16
24746;BME280;12845;52.042;6.838;2023-07-09T13:24:27;-19048.28;;;38.35;32.21
24746;BME280;12845;52.042;6.838;2023-07-09T13:26:53;-19044.03;;;38.19;31.18
24746;BME280;12845;52.042;6.838;2023-07-09T13:29:19;-19050.28;;;38.43;32.84